Terminal Aerodrome Forecast
Issued by NWS Lake Charles, LA

Home | Current Version | Previous Version | Text Only | Print | Product List | Glossary On
Versions: 1 2 3 4 5 6 7 8 9 10 11 12 13 14 15 16 17
658
FTUS44 KLCH 171323 AAA
TAFARA
TAF AMD
KARA 171323Z 1713/1812 01004KT P6SM -RA FEW006 SCT014 OVC035
      TEMPO 1713/1716 SCT006 OVC014
     FM171600 34010KT P6SM VCSH OVC017
     FM171800 VRB03KT P6SM SCT026 OVC035
     FM180300 VRB05KT P6SM -SHRA SCT029 OVC040
      TEMPO 1805/1809 5SM TSRA SCT024 BKN030CB=

USA.gov is the U.S. government's official web portal to all federal, state and local government web resources and services.